Observation data for Roaring Springs on 08/14/2020      Previous  Date  Next       Current Mesonet Observations  Soil Data  Daily Summary Page  Observations in Plain Language
KRRS 140500Z 31005KT 30/13 A2994 RMK A01 T03040133  RH  036%=      5-min Rain = 0
KRRS 140505Z 31007KT 31/13 A2994 RMK A01 T03060133  RH  036%=      5-min Rain = 0
KRRS 140510Z 30005KT 31/14 A2994 RMK A01 T03100136  RH  036%=      5-min Rain = 0
KRRS 140515Z 28007KT 31/14 A2994 RMK A01 T03130140  RH  036%=      5-min Rain = 0
KRRS 140520Z 27007KT 32/14 A2994 RMK A01 T03170139  RH  036%=      5-min Rain = 0
KRRS 140525Z 28008KT 31/14 A2994 RMK A01 T03100138  RH  036%=      5-min Rain = 0
KRRS 140530Z 27007KT 30/14 A2994 RMK A01 T03030137  RH  038%=      5-min Rain = 0
KRRS 140535Z 28008KT 30/14 A2994 RMK A01 T03010135  RH  038%=      5-min Rain = 0
KRRS 140540Z 27007KT 30/14 A2994 RMK A01 T02970136  RH  039%=      5-min Rain = 0
KRRS 140545Z 27006KT 30/14 A2994 RMK A01 T02960137  RH  039%=      5-min Rain = 0
KRRS 140550Z 26007KT 30/14 A2994 RMK A01 T03020139  RH  039%=      5-min Rain = 0
KRRS 140555Z 25007KT 30/14 A2994 RMK A01 T03040136  RH  037%=      5-min Rain = 0
KRRS 140600Z 26006KT 30/14 A2994 RMK A01 T03030136  RH  037%=      5-min Rain = 0
KRRS 140605Z 28007KT 30/14 A2994 RMK A01 T02960138  RH  040%=      5-min Rain = 0
KRRS 140610Z 26005KT 29/14 A2995 RMK A01 T02890138  RH  041%=      5-min Rain = 0
KRRS 140615Z 27005KT 29/14 A2995 RMK A01 T02890137  RH  041%=      5-min Rain = 0
KRRS 140620Z 26007KT 29/14 A2995 RMK A01 T02900136  RH  040%=      5-min Rain = 0
KRRS 140625Z 24006KT 29/13 A2995 RMK A01 T02910134  RH  040%=      5-min Rain = 0
KRRS 140630Z 22005KT 30/13 A2995 RMK A01 T02950130  RH  038%=      5-min Rain = 0
KRRS 140635Z 23004KT 30/13 A2994 RMK A01 T02970127  RH  037%=      5-min Rain = 0
KRRS 140640Z 22005KT 30/12 A2994 RMK A01 T02990121  RH  035%=      5-min Rain = 0
KRRS 140645Z 22006KT 31/12 A2994 RMK A01 T03060116  RH  032%=      5-min Rain = 0
KRRS 140650Z 23006KT 30/12 A2994 RMK A01 T03030117  RH  033%=      5-min Rain = 0
KRRS 140655Z 26006KT 29/12 A2994 RMK A01 T02940115  RH  034%=      5-min Rain = 0
KRRS 140700Z 27007KT 29/11 A2994 RMK A01 T02920113  RH  034%=      5-min Rain = 0
KRRS 140705Z 27007KT 29/11 A2994 RMK A01 T02910111  RH  034%=      5-min Rain = 0
KRRS 140710Z 26007KT 29/11 A2994 RMK A01 T02900109  RH  034%=      5-min Rain = 0
KRRS 140715Z 26007KT 29/11 A2994 RMK A01 T02910108  RH  033%=      5-min Rain = 0
KRRS 140720Z 26007KT 29/11 A2994 RMK A01 T02890107  RH  034%=      5-min Rain = 0
KRRS 140725Z 26008KT 29/11 A2994 RMK A01 T02870107  RH  034%=      5-min Rain = 0
KRRS 140730Z 26008KT 29/11 A2994 RMK A01 T02870106  RH  034%=      5-min Rain = 0
KRRS 140735Z 26007KT 29/11 A2994 RMK A01 T02880106  RH  033%=      5-min Rain = 0
KRRS 140740Z 25007KT 29/11 A2993 RMK A01 T02860105  RH  034%=      5-min Rain = 0
KRRS 140745Z 24007KT 29/11 A2993 RMK A01 T02890105  RH  033%=      5-min Rain = 0
KRRS 140750Z 24006KT 29/11 A2993 RMK A01 T02890105  RH  033%=      5-min Rain = 0
KRRS 140755Z 24006KT 29/11 A2993 RMK A01 T02850106  RH  034%=      5-min Rain = 0
KRRS 140800Z 24005KT 28/11 A2993 RMK A01 T02810107  RH  035%=      5-min Rain = 0
KRRS 140805Z 24006KT 28/11 A2993 RMK A01 T02780107  RH  036%=      5-min Rain = 0
KRRS 140810Z 25006KT 28/11 A2993 RMK A01 T02760107  RH  036%=      5-min Rain = 0
KRRS 140815Z 26006KT 27/11 A2993 RMK A01 T02730108  RH  037%=      5-min Rain = 0
KRRS 140820Z 26007KT 27/11 A2993 RMK A01 T02720109  RH  037%=      5-min Rain = 0
KRRS 140825Z 26007KT 27/11 A2993 RMK A01 T02710109  RH  038%=      5-min Rain = 0
KRRS 140830Z 25006KT 27/11 A2993 RMK A01 T02690110  RH  038%=      5-min Rain = 0
KRRS 140835Z 25006KT 27/11 A2993 RMK A01 T02680111  RH  039%=      5-min Rain = 0
KRRS 140840Z 25007KT 27/11 A2993 RMK A01 T02660111  RH  039%=      5-min Rain = 0
KRRS 140845Z 25008KT 27/11 A2993 RMK A01 T02650112  RH  040%=      5-min Rain = 0
KRRS 140850Z 25008KT 27/11 A2993 RMK A01 T02690113  RH  039%=      5-min Rain = 0
KRRS 140855Z 25008KT 27/11 A2993 RMK A01 T02690114  RH  039%=      5-min Rain = 0
KRRS 140900Z 26008KT 27/11 A2993 RMK A01 T02690114  RH  039%=      5-min Rain = 0
KRRS 140905Z 26008KT 27/11 A2993 RMK A01 T02700114  RH  039%=      5-min Rain = 0
KRRS 140910Z 26008KT 27/11 A2993 RMK A01 T02690114  RH  039%=      5-min Rain = 0
KRRS 140915Z 26008KT 27/12 A2993 RMK A01 T02660115  RH  040%=      5-min Rain = 0
KRRS 140920Z 26008KT 26/12 A2993 RMK A01 T02640116  RH  041%=      5-min Rain = 0
KRRS 140925Z 26009KT 26/12 A2993 RMK A01 T02630116  RH  042%=      5-min Rain = 0
KRRS 140930Z 26008KT 26/12 A2992 RMK A01 T02620117  RH  042%=      5-min Rain = 0
KRRS 140935Z 25008KT 26/12 A2992 RMK A01 T02620117  RH  042%=      5-min Rain = 0
KRRS 140940Z 25008KT 26/12 A2992 RMK A01 T02630117  RH  042%=      5-min Rain = 0
KRRS 140945Z 24009KT 27/12 A2992 RMK A01 T02650117  RH  041%=      5-min Rain = 0
KRRS 140950Z 24010KT 27/12 A2992 RMK A01 T02710117  RH  040%=      5-min Rain = 0
KRRS 140955Z 24011KT 28/12 A2992 RMK A01 T02750118  RH  039%=      5-min Rain = 0
KRRS 141000Z 24011G17KT 28/12 A2992 RMK A01 T02780119  RH  039%=      5-min Rain = 0
KRRS 141005Z 24011KT 28/12 A2992 RMK A01 T02800120  RH  039%=      5-min Rain = 0
KRRS 141010Z 24012KT 28/12 A2992 RMK A01 T02810121  RH  039%=      5-min Rain = 0
KRRS 141015Z 24011G16KT 28/12 A2992 RMK A01 T02800121  RH  039%=      5-min Rain = 0
KRRS 141020Z 24012KT 28/12 A2992 RMK A01 T02800121  RH  039%=      5-min Rain = 0
KRRS 141025Z 24012G19KT 28/12 A2992 RMK A01 T02800121  RH  039%=      5-min Rain = 0
KRRS 141030Z 24013KT 28/12 A2992 RMK A01 T02810121  RH  038%=      5-min Rain = 0
KRRS 141035Z 24011KT 28/12 A2992 RMK A01 T02810121  RH  038%=      5-min Rain = 0
KRRS 141040Z 24013G18KT 28/12 A2992 RMK A01 T02810119  RH  038%=      5-min Rain = 0
KRRS 141045Z 24013G18KT 28/12 A2992 RMK A01 T02800117  RH  038%=      5-min Rain = 0
KRRS 141050Z 24013G18KT 28/12 A2992 RMK A01 T02790116  RH  038%=      5-min Rain = 0
KRRS 141055Z 24012G17KT 28/12 A2992 RMK A01 T02790116  RH  038%=      5-min Rain = 0
KRRS 141100Z 24012G17KT 28/12 A2992 RMK A01 T02780116  RH  038%=      5-min Rain = 0
KRRS 141105Z 24012G17KT 28/12 A2992 RMK A01 T02790117  RH  038%=      5-min Rain = 0
KRRS 141110Z 24012KT 28/12 A2992 RMK A01 T02790118  RH  038%=      5-min Rain = 0
KRRS 141115Z 24011G16KT 28/12 A2992 RMK A01 T02790119  RH  038%=      5-min Rain = 0
KRRS 141120Z 25011G16KT 28/12 A2991 RMK A01 T02800119  RH  038%=      5-min Rain = 0
KRRS 141125Z 24012KT 28/12 A2992 RMK A01 T02820120  RH  038%=      5-min Rain = 0
KRRS 141130Z 25012G18KT 28/12 A2992 RMK A01 T02820121  RH  038%=      5-min Rain = 0
KRRS 141135Z 25012G18KT 28/12 A2992 RMK A01 T02830122  RH  038%=      5-min Rain = 0
KRRS 141140Z 25013G18KT 28/12 A2992 RMK A01 T02830123  RH  039%=      5-min Rain = 0
KRRS 141145Z 25013G19KT 28/12 A2992 RMK A01 T02840124  RH  039%=      5-min Rain = 0
KRRS 141150Z 25012G17KT 28/13 A2992 RMK A01 T02830125  RH  039%=      5-min Rain = 0
KRRS 141155Z 25012G19KT 28/13 A2992 RMK A01 T02830126  RH  040%=      5-min Rain = 0
KRRS 141200Z 25014G20KT 28/13 A2992 RMK A01 T02840127  RH  040%=      5-min Rain = 0
KRRS 141205Z 25012G18KT 28/13 A2992 RMK A01 T02840128  RH  040%=      5-min Rain = 0
KRRS 141210Z 26012G20KT 28/13 A2993 RMK A01 T02820129  RH  040%=      5-min Rain = 0
KRRS 141215Z 26013G19KT 28/13 A2993 RMK A01 T02810128  RH  041%=      5-min Rain = 0
KRRS 141220Z 25014G19KT 28/13 A2993 RMK A01 T02810129  RH  041%=      5-min Rain = 0
KRRS 141225Z 25013G21KT 28/13 A2993 RMK A01 T02800129  RH  041%=      5-min Rain = 0
KRRS 141230Z 25013KT 28/13 A2993 RMK A01 T02800129  RH  041%=      5-min Rain = 0
KRRS 141235Z 25013G19KT 28/13 A2993 RMK A01 T02800130  RH  041%=      5-min Rain = 0
KRRS 141240Z 25014G20KT 28/13 A2993 RMK A01 T02810130  RH  041%=      5-min Rain = 0
KRRS 141245Z 25014G20KT 28/13 A2994 RMK A01 T02830131  RH  041%=      5-min Rain = 0
KRRS 141250Z 25013G21KT 28/13 A2994 RMK A01 T02840132  RH  041%=      5-min Rain = 0
KRRS 141255Z 25015G20KT 29/13 A2994 RMK A01 T02860132  RH  040%=      5-min Rain = 0
KRRS 141300Z 25014G19KT 29/13 A2994 RMK A01 T02870132  RH  040%=      5-min Rain = 0
KRRS 141305Z 25014G21KT 29/13 A2994 RMK A01 T02890133  RH  040%=      5-min Rain = 0
KRRS 141310Z 25013G20KT 29/13 A2994 RMK A01 T02900134  RH  040%=      5-min Rain = 0
KRRS 141315Z 25012KT 29/13 A2994 RMK A01 T02920134  RH  040%=      5-min Rain = 0
KRRS 141320Z 26014KT 29/13 A2994 RMK A01 T02930134  RH  039%=      5-min Rain = 0
KRRS 141325Z 25012KT 30/14 A2995 RMK A01 T02950135  RH  039%=      5-min Rain = 0
KRRS 141330Z 26013G19KT 30/14 A2995 RMK A01 T02970135  RH  039%=      5-min Rain = 0
KRRS 141335Z 26014G22KT 30/14 A2995 RMK A01 T02980135  RH  038%=      5-min Rain = 0
KRRS 141340Z 26015G20KT 30/14 A2995 RMK A01 T03000135  RH  038%=      5-min Rain = 0
KRRS 141345Z 26014G20KT 30/14 A2995 RMK A01 T03020136  RH  038%=      5-min Rain = 0
KRRS 141350Z 26016G23KT 31/14 A2995 RMK A01 T03050135  RH  037%=      5-min Rain = 0
KRRS 141355Z 26015G20KT 31/14 A2995 RMK A01 T03060135  RH  037%=      5-min Rain = 0
KRRS 141400Z 26015G21KT 31/14 A2995 RMK A01 T03090136  RH  036%=      5-min Rain = 0
KRRS 141405Z 26015G20KT 31/14 A2995 RMK A01 T03110136  RH  036%=      5-min Rain = 0
KRRS 141410Z 25016G22KT 31/14 A2995 RMK A01 T03130136  RH  035%=      5-min Rain = 0
KRRS 141415Z 25015G21KT 32/14 A2995 RMK A01 T03160136  RH  035%=      5-min Rain = 0
KRRS 141420Z 25017G22KT 32/14 A2995 RMK A01 T03180135  RH  034%=      5-min Rain = 0
KRRS 141425Z 26014KT 32/14 A2995 RMK A01 T03220135  RH  034%=      5-min Rain = 0
KRRS 141430Z 25015G22KT 33/14 A2995 RMK A01 T03250135  RH  033%=      5-min Rain = 0
KRRS 141435Z 25017G24KT 33/13 A2996 RMK A01 T03260134  RH  032%=      5-min Rain = 0
KRRS 141440Z 25014G19KT 33/13 A2996 RMK A01 T03300134  RH  032%=      5-min Rain = 0
KRRS 141445Z 25012G18KT 33/13 A2996 RMK A01 T03320133  RH  031%=      5-min Rain = 0
KRRS 141450Z 24008KT 34/13 A2996 RMK A01 T03350134  RH  031%=      5-min Rain = 0
KRRS 141455Z 24007G12KT 34/13 A2997 RMK A01 T03370134  RH  031%=      5-min Rain = 0
KRRS 141500Z 24007G13KT 34/13 A2997 RMK A01 T03390133  RH  030%=      5-min Rain = 0
KRRS 141505Z 22007G12KT 34/14 A2997 RMK A01 T03420135  RH  030%=      5-min Rain = 0
KRRS 141510Z 21009KT 34/13 A2997 RMK A01 T03420134  RH  030%=      5-min Rain = 0
KRRS 141515Z 22009KT 34/13 A2997 RMK A01 T03420133  RH  029%=      5-min Rain = 0
KRRS 141520Z 24010KT 34/13 A2997 RMK A01 T03410132  RH  029%=      5-min Rain = 0
KRRS 141525Z 23010G16KT 34/13 A2997 RMK A01 T03440132  RH  029%=      5-min Rain = 0
KRRS 141530Z 24011KT 35/13 A2996 RMK A01 T03480133  RH  029%=      5-min Rain = 0
KRRS 141535Z 25011KT 35/13 A2996 RMK A01 T03510132  RH  028%=      5-min Rain = 0
KRRS 141540Z 24011KT 35/13 A2996 RMK A01 T03510132  RH  028%=      5-min Rain = 0
KRRS 141545Z 24013G18KT 35/13 A2996 RMK A01 T03530129  RH  027%=      5-min Rain = 0
KRRS 141550Z 23011KT 35/13 A2997 RMK A01 T03540126  RH  026%=      5-min Rain = 0
KRRS 141555Z 24009KT 36/13 A2997 RMK A01 T03610127  RH  026%=      5-min Rain = 0
KRRS 141600Z 24010KT 36/12 A2997 RMK A01 T03600124  RH  025%=      5-min Rain = 0
KRRS 141605Z 24009KT 36/12 A2997 RMK A01 T03600119  RH  024%=      5-min Rain = 0
KRRS 141610Z 24008G15KT 36/12 A2997 RMK A01 T03630124  RH  025%=      5-min Rain = 0
KRRS 141615Z 22008G13KT 37/13 A2997 RMK A01 T03660125  RH  025%=      5-min Rain = 0
KRRS 141620Z 21007KT 36/12 A2997 RMK A01 T03640123  RH  024%=      5-min Rain = 0
KRRS 141625Z 22012G17KT 37/12 A2997 RMK A01 T03670122  RH  024%=      5-min Rain = 0
KRRS 141630Z 24011G16KT 37/11 A2996 RMK A01 T03680113  RH  022%=      5-min Rain = 0
KRRS 141635Z 26009G14KT 38/11 A2996 RMK A01 T03750109  RH  021%=      5-min Rain = 0
KRRS 141640Z 26009G14KT 38/11 A2996 RMK A01 T03780110  RH  021%=      5-min Rain = 0
KRRS 141645Z 24012G19KT 38/11 A2996 RMK A01 T03760114  RH  022%=      5-min Rain = 0
KRRS 141650Z 23009G15KT 38/12 A2996 RMK A01 T03760115  RH  022%=      5-min Rain = 0
KRRS 141655Z 24010G15KT 38/12 A2996 RMK A01 T03760116  RH  022%=      5-min Rain = 0
KRRS 141700Z 23009KT 38/12 A2996 RMK A01 T03750117  RH  022%=      5-min Rain = 0
KRRS 141705Z 24010G15KT 38/12 A2996 RMK A01 T03790121  RH  022%=      5-min Rain = 0
KRRS 141710Z 23007KT 38/12 A2996 RMK A01 T03820121  RH  022%=      5-min Rain = 0
KRRS 141715Z 24008G14KT 38/12 A2996 RMK A01 T03840117  RH  021%=      5-min Rain = 0
KRRS 141720Z 28010G15KT 39/11 A2996 RMK A01 T03870111  RH  020%=      5-min Rain = 0
KRRS 141725Z 28010G15KT 39/11 A2996 RMK A01 T03870111  RH  020%=      5-min Rain = 0
KRRS 141730Z 28007KT 39/11 A2996 RMK A01 T03870113  RH  020%=      5-min Rain = 0
KRRS 141735Z 30006G13KT 39/12 A2995 RMK A01 T03900116  RH  020%=      5-min Rain = 0
KRRS 141740Z 29006G12KT 39/11 A2995 RMK A01 T03920113  RH  020%=      5-min Rain = 0
KRRS 141745Z 25010KT 39/11 A2995 RMK A01 T03930114  RH  020%=      5-min Rain = 0
KRRS 141750Z 25006G11KT 39/11 A2995 RMK A01 T03930113  RH  019%=      5-min Rain = 0
KRRS 141755Z 25007KT 40/11 A2995 RMK A01 T03990110  RH  019%=      5-min Rain = 0
KRRS 141800Z 27006KT 40/11 A2995 RMK A01 T03970108  RH  019%=      5-min Rain = 0
KRRS 141805Z 30005G13KT 40/11 A2994 RMK A01 T04010106  RH  018%=      5-min Rain = 0
KRRS 141810Z 33008KT 40/10 A2994 RMK A01 T04020103  RH  017%=      5-min Rain = 0
KRRS 141815Z 01009KT 41/10 A2994 RMK A01 T04050101  RH  017%=      5-min Rain = 0
KRRS 141820Z 36011KT 41/10 A2994 RMK A01 T04070101  RH  017%=      5-min Rain = 0
KRRS 141825Z 35006G11KT 41/10 A2994 RMK A01 T04080100  RH  017%=      5-min Rain = 0
KRRS 141830Z 30003G8KT 41/10 A2994 RMK A01 T04090095  RH  016%=      5-min Rain = 0
KRRS 141835Z 27004KT 41/10 A2994 RMK A01 T04110098  RH  016%=      5-min Rain = 0
KRRS 141840Z 03006KT 41/10 A2994 RMK A01 T04110103  RH  017%=      5-min Rain = 0
KRRS 141845Z 03006KT 41/10 A2994 RMK A01 T04080102  RH  017%=      5-min Rain = 0
KRRS 141850Z 34005G11KT 41/09 A2993 RMK A01 T04140089  RH  015%=      5-min Rain = 0
KRRS 141855Z 30005KT 41/08 A2993 RMK A01 T04110081  RH  014%=      5-min Rain = 0
KRRS 141900Z 33005KT 41/08 A2993 RMK A01 T04120083  RH  014%=      5-min Rain = 0
KRRS 141905Z 36006KT 41/10 A2993 RMK A01 T04130098  RH  016%=      5-min Rain = 0
KRRS 141910Z 02006KT 41/09 A2993 RMK A01 T04050093  RH  016%=      5-min Rain = 0
KRRS 141915Z 35006G11KT 41/08 A2993 RMK A01 T04050084  RH  015%=      5-min Rain = 0
KRRS 141920Z 29006KT 41/08 A2993 RMK A01 T04060076  RH  014%=      5-min Rain = 0
KRRS 141925Z 26010KT 41/08 A2993 RMK A01 T04110078  RH  014%=      5-min Rain = 0
KRRS 141930Z 25007G12KT 42/08 A2992 RMK A01 T04170080  RH  014%=      5-min Rain = 0
KRRS 141935Z 24007G17KT 42/08 A2992 RMK A01 T04170081  RH  014%=      5-min Rain = 0
KRRS 141940Z 25010G15KT 42/08 A2992 RMK A01 T04150079  RH  014%=      5-min Rain = 0
KRRS 141945Z 23007G12KT 41/08 A2991 RMK A01 T04130079  RH  014%=      5-min Rain = 0
KRRS 141950Z 27008G13KT 42/08 A2991 RMK A01 T04170079  RH  014%=      5-min Rain = 0
KRRS 141955Z 23009G15KT 42/08 A2991 RMK A01 T04180080  RH  014%=      5-min Rain = 0
KRRS 142000Z 22004G10KT 42/08 A299 RMK A01 T04150079  RH  014%=      5-min Rain = 0
KRRS 142005Z 24004G13KT 42/08 A299 RMK A01 T04180082  RH  014%=      5-min Rain = 0
KRRS 142010Z 20009KT 42/08 A2989 RMK A01 T04220079  RH  013%=      5-min Rain = 0
KRRS 142015Z 20008G13KT 42/08 A2989 RMK A01 T04220079  RH  013%=      5-min Rain = 0
KRRS 142020Z 20007KT 42/08 A2989 RMK A01 T04190077  RH  013%=      5-min Rain = 0
KRRS 142025Z 20006G14KT 42/08 A2989 RMK A01 T04200075  RH  013%=      5-min Rain = 0
KRRS 142030Z 15006G13KT 42/07 A2989 RMK A01 T04170074  RH  013%=      5-min Rain = 0
KRRS 142035Z 15007G12KT 42/08 A2988 RMK A01 T04150076  RH  013%=      5-min Rain = 0
KRRS 142040Z 13006G11KT 41/08 A2988 RMK A01 T04120076  RH  014%=      5-min Rain = 0
KRRS 142045Z 07004KT 41/08 A2988 RMK A01 T04110075  RH  014%=      5-min Rain = 0
KRRS 142050Z 01009G15KT 41/08 A2988 RMK A01 T04110075  RH  014%=      5-min Rain = 0
KRRS 142055Z 02010KT 41/08 A2988 RMK A01 T04060075  RH  014%=      5-min Rain = 0
KRRS 142100Z 03013G20KT 39/08 A2988 RMK A01 T03940084  RH  016%=      5-min Rain = 0
KRRS 142105Z 03015G21KT 39/08 A2988 RMK A01 T03860084  RH  017%=      5-min Rain = 0
KRRS 142110Z 03012G17KT 38/10 A2988 RMK A01 T03790100  RH  019%=      5-min Rain = 0
KRRS 142115Z 04012KT 37/10 A2987 RMK A01 T03740100  RH  020%=      5-min Rain = 0
KRRS 142120Z 07012KT 38/09 A2987 RMK A01 T03770085  RH  018%=      5-min Rain = 0
KRRS 142125Z 07010KT 38/08 A2988 RMK A01 T03820079  RH  016%=      5-min Rain = 0
KRRS 142130Z 12023G42KT 36/12 A2987 RMK A01 T03640122  RH  024%=      5-min Rain = 0
KRRS 142135Z 11010G18KT 36/11 A2988 RMK A01 T03570111  RH  024%=      5-min Rain = 0
KRRS 142140Z 11009KT 36/13 A2988 RMK A01 T03550130  RH  027%=      5-min Rain = 0
KRRS 142145Z 36004KT 35/11 A2989 RMK A01 T03470110  RH  025%=      5-min Rain = 0
KRRS 142150Z 34010G16KT 36/10 A299 RMK A01 T03570097  RH  021%=      5-min Rain = 0
KRRS 142155Z 36011G19KT 35/12 A2991 RMK A01 T03470121  RH  027%=      5-min Rain = 0
KRRS 142200Z 34015G24KT 33/14 A2991 RMK A01 T03280138  RH  033%=      5-min Rain = 0
KRRS 142205Z 33019G26KT 32/12 A2991 RMK A01 T03200122  RH  031%=      5-min Rain = 0
KRRS 142210Z 31018G23KT 31/15 A2992 RMK A01 T03110146  RH  039%=      5-min Rain = 0
KRRS 142215Z 30021G29KT 28/16 A2992 RMK A01 T02840156  RH  048%=      5-min Rain = 0
KRRS 142220Z 30024G34KT 28/16 A2992 RMK A01 T02830157  RH  048%=      5-min Rain = 0
KRRS 142225Z 32025G36KT 27/17 A2993 RMK A01 T02690171  RH  058%=      5-min Rain = 0
KRRS 142230Z 33024G35KT 26/17 A2994 RMK A01 T02640166  RH  058%=      5-min Rain = 0
KRRS 142235Z 33027G38KT 27/15 A2993 RMK A01 T02720153  RH  050%=      5-min Rain = 0
KRRS 142240Z 33023G34KT 28/16 A2993 RMK A01 T02830155  RH  048%=      5-min Rain = 0
KRRS 142245Z 34023G32KT 29/15 A2993 RMK A01 T02890145  RH  043%=      5-min Rain = 0
KRRS 142250Z 34021G29KT 30/14 A2993 RMK A01 T02990138  RH  039%=      5-min Rain = 0
KRRS 142255Z 35017G27KT 31/13 A2993 RMK A01 T03050130  RH  036%=      5-min Rain = 0
KRRS 142300Z 01015G22KT 31/12 A2993 RMK A01 T03070122  RH  033%=      5-min Rain = 0
KRRS 142305Z 03016G25KT 31/12 A2992 RMK A01 T03130119  RH  032%=      5-min Rain = 0
KRRS 142310Z 04013G18KT 31/14 A2992 RMK A01 T03060138  RH  038%=      5-min Rain = 0
KRRS 142315Z 08012G20KT 30/15 A2993 RMK A01 T02950146  RH  042%=      5-min Rain = 0
KRRS 142320Z 09017G23KT 30/14 A2993 RMK A01 T02980139  RH  039%=      5-min Rain = 0
KRRS 142325Z 08016KT 30/14 A2993 RMK A01 T03030138  RH  038%=      5-min Rain = 0
KRRS 142330Z 07016KT 31/14 A2992 RMK A01 T03050141  RH  039%=      5-min Rain = 0
KRRS 142335Z 07018G26KT 30/14 A2992 RMK A01 T03040144  RH  039%=      5-min Rain = 0
KRRS 142340Z 07014G20KT 30/15 A2992 RMK A01 T03040145  RH  040%=      5-min Rain = 0
KRRS 142345Z 06015G21KT 31/14 A2993 RMK A01 T03080136  RH  036%=      5-min Rain = 0
KRRS 142350Z 07016G24KT 32/12 A2994 RMK A01 T03160124  RH  032%=      5-min Rain = 0
KRRS 142355Z 08016G24KT 32/12 A2995 RMK A01 T03200124  RH  031%=      5-min Rain = 0
KRRS 150000Z 08014G20KT 32/13 A2996 RMK A01 T03190126  RH  032%=      5-min Rain = 0
KRRS 150005Z 08014G20KT 31/13 A2997 RMK A01 T03140128  RH  033%=      5-min Rain = 0
KRRS 150010Z 09016G21KT 31/13 A2997 RMK A01 T03100130  RH  035%=      5-min Rain = 0
KRRS 150015Z 09011KT 31/14 A2997 RMK A01 T03060136  RH  037%=      5-min Rain = 0
KRRS 150020Z 09012G17KT 30/13 A2997 RMK A01 T03040134  RH  037%=      5-min Rain = 0
KRRS 150025Z 09010KT 30/14 A2997 RMK A01 T03030137  RH  038%=      5-min Rain = 0
KRRS 150030Z 08009KT 30/14 A2997 RMK A01 T03000141  RH  040%=      5-min Rain = 0
KRRS 150035Z 09009KT 30/14 A2996 RMK A01 T02990138  RH  039%=      5-min Rain = 0
KRRS 150040Z 09010KT 30/13 A2997 RMK A01 T03010131  RH  037%=      5-min Rain = 0
KRRS 150045Z 07009KT 30/13 A2998 RMK A01 T03020130  RH  036%=      5-min Rain = 0
KRRS 150050Z 05011KT 31/13 A2999 RMK A01 T03050126  RH  035%=      5-min Rain = 0
KRRS 150055Z 04011KT 30/14 A3001 RMK A01 T03040138  RH  038%=      5-min Rain = 0
KRRS 150100Z 03015G22KT 28/16 A3001 RMK A01 T02800159  RH  050%=      5-min Rain = 0.01
KRRS 150105Z 05014G20KT 28/14 A3002 RMK A01 T02760144  RH  046%=      5-min Rain = 0
KRRS 150110Z 05011G18KT 28/15 A3002 RMK A01 T02830146  RH  045%=      5-min Rain = 0
KRRS 150115Z 08010KT 28/15 A3002 RMK A01 T02780154  RH  049%=      5-min Rain = 0
KRRS 150120Z 12008KT 27/16 A3001 RMK A01 T02740159  RH  052%=      5-min Rain = 0
KRRS 150125Z 13006KT 28/15 A30 RMK A01 T02770154  RH  049%=      5-min Rain = 0
KRRS 150130Z 13004KT 28/15 A30 RMK A01 T02810147  RH  046%=      5-min Rain = 0
KRRS 150135Z 04001KT 29/14 A3001 RMK A01 T02850140  RH  043%=      5-min Rain = 0
KRRS 150140Z 13002KT 29/14 A3001 RMK A01 T02870138  RH  042%=      5-min Rain = 0
KRRS 150145Z 16004KT 29/14 A3001 RMK A01 T02920141  RH  042%=      5-min Rain = 0
KRRS 150150Z 17006KT 29/15 A30 RMK A01 T02850154  RH  047%=      5-min Rain = 0
KRRS 150155Z 16011G18KT 29/13 A2999 RMK A01 T02880132  RH  040%=      5-min Rain = 0
KRRS 150200Z 21015KT 30/14 A2998 RMK A01 T02960139  RH  040%=      5-min Rain = 0
KRRS 150205Z 20020G28KT 28/15 A2997 RMK A01 T02820150  RH  047%=      5-min Rain = 0
KRRS 150210Z 18022G35KT 30/12 A2994 RMK A01 T02980116  RH  034%=      5-min Rain = 0
KRRS 150215Z 19028G39KT 33/10 A2991 RMK A01 T03300095  RH  024%=      5-min Rain = 0
KRRS 150220Z 18022G32KT 33/10 A2991 RMK A01 T03310098  RH  025%=      5-min Rain = 0
KRRS 150225Z 15007G21KT 33/10 A2993 RMK A01 T03330096  RH  024%=      5-min Rain = 0
KRRS 150230Z 13013G21KT 33/10 A2994 RMK A01 T03280104  RH  026%=      5-min Rain = 0
KRRS 150235Z 15009G16KT 33/10 A2995 RMK A01 T03280103  RH  026%=      5-min Rain = 0
KRRS 150240Z 17011KT 33/11 A2995 RMK A01 T03260107  RH  027%=      5-min Rain = 0
KRRS 150245Z 15008G13KT 33/11 A2995 RMK A01 T03270107  RH  027%=      5-min Rain = 0
KRRS 150250Z 14011G16KT 32/11 A2996 RMK A01 T03220114  RH  029%=      5-min Rain = 0
KRRS 150255Z 17009KT 31/12 A2997 RMK A01 T03140118  RH  031%=      5-min Rain = 0
KRRS 150300Z 17010KT 31/12 A2997 RMK A01 T03100115  RH  031%=      5-min Rain = 0
KRRS 150305Z 17008KT 31/12 A2998 RMK A01 T03070116  RH  032%=      5-min Rain = 0
KRRS 150310Z 18008KT 30/12 A2998 RMK A01 T03040115  RH  032%=      5-min Rain = 0
KRRS 150315Z 18008KT 31/12 A2998 RMK A01 T03050115  RH  032%=      5-min Rain = 0
KRRS 150320Z 17008KT 30/12 A2998 RMK A01 T03010115  RH  033%=      5-min Rain = 0
KRRS 150325Z 16006KT 30/12 A2997 RMK A01 T03000116  RH  033%=      5-min Rain = 0
KRRS 150330Z 17008KT 30/12 A2998 RMK A01 T03000115  RH  033%=      5-min Rain = 0
KRRS 150335Z 19008KT 30/12 A2998 RMK A01 T02960120  RH  035%=      5-min Rain = 0
KRRS 150340Z 18007KT 29/12 A2997 RMK A01 T02920122  RH  036%=      5-min Rain = 0
KRRS 150345Z 17008KT 29/12 A2997 RMK A01 T02940118  RH  035%=      5-min Rain = 0
KRRS 150350Z 19008KT 30/12 A2997 RMK A01 T02990116  RH  034%=      5-min Rain = 0
KRRS 150355Z 21006KT 29/12 A2997 RMK A01 T02930120  RH  036%=      5-min Rain = 0
KRRS 150400Z 21006KT 29/12 A2997 RMK A01 T02900120  RH  036%=      5-min Rain = 0
KRRS 150405Z 22007KT 29/12 A2997 RMK A01 T02890119  RH  036%=      5-min Rain = 0
KRRS 150410Z 23007KT 29/12 A2997 RMK A01 T02880120  RH  037%=      5-min Rain = 0
KRRS 150415Z 25007KT 29/12 A2998 RMK A01 T02880122  RH  037%=      5-min Rain = 0
KRRS 150420Z 25007KT 29/12 A2998 RMK A01 T02880123  RH  038%=      5-min Rain = 0
KRRS 150425Z 25007KT 29/13 A2998 RMK A01 T02870126  RH  039%=      5-min Rain = 0
KRRS 150430Z 25007KT 29/13 A2998 RMK A01 T02870127  RH  039%=      5-min Rain = 0
KRRS 150435Z 25007KT 29/13 A2998 RMK A01 T02860127  RH  039%=      5-min Rain = 0
KRRS 150440Z 25008KT 29/13 A2998 RMK A01 T02870125  RH  038%=      5-min Rain = 0
KRRS 150445Z 27007KT 29/13 A2998 RMK A01 T02860130  RH  040%=      5-min Rain = 0
KRRS 150450Z 28008KT 28/14 A2998 RMK A01 T02820135  RH  042%=      5-min Rain = 0
KRRS 150455Z 28009KT 28/14 A2998 RMK A01 T02800136  RH  043%=      5-min Rain = 0

Page generated in 0.0094 seconds.